createdAt,value
2023-02-12T00:00:15.613Z,13.00
2023-02-12T00:02:48.395Z,13.10
2023-02-12T00:05:17.041Z,13.10
2023-02-12T00:07:46.252Z,13.30
2023-02-12T00:10:14.203Z,13.30
2023-02-12T00:12:42.069Z,13.30
2023-02-12T00:15:10.356Z,13.40
2023-02-12T00:17:47.105Z,13.40
2023-02-12T00:20:20.155Z,13.50
2023-02-12T00:22:52.376Z,13.60
2023-02-12T00:25:20.258Z,13.60
2023-02-12T00:27:54.262Z,13.50
2023-02-12T00:30:24.949Z,13.40
2023-02-12T00:32:55.607Z,13.50
2023-02-12T00:35:23.484Z,13.40
2023-02-12T00:37:57.715Z,13.50
2023-02-12T00:40:27.790Z,13.50
2023-02-12T00:42:55.662Z,13.40
2023-02-12T00:45:23.593Z,13.50
2023-02-12T00:48:08.547Z,13.40
2023-02-12T00:50:41.677Z,13.50
2023-02-12T00:53:13.813Z,13.60
2023-02-12T00:55:45.042Z,13.50
2023-02-12T00:58:13.134Z,13.50
2023-02-12T01:00:41.070Z,13.50
2023-02-12T01:03:27.142Z,13.60
2023-02-12T01:06:04.477Z,13.60
2023-02-12T01:08:33.708Z,13.70
2023-02-12T01:11:03.098Z,13.70
2023-02-12T01:13:31.726Z,13.70
2023-02-12T01:16:04.490Z,13.70
2023-02-12T01:18:34.563Z,13.80
2023-02-12T01:21:09.678Z,13.90
2023-02-12T01:23:46.893Z,14.00
2023-02-12T01:26:15.708Z,13.80
2023-02-12T01:28:46.352Z,13.70
2023-02-12T01:31:16.371Z,13.60
2023-02-12T01:33:59.814Z,13.70
2023-02-12T01:36:35.456Z,13.70
2023-02-12T01:39:05.343Z,13.70
2023-02-12T01:41:38.197Z,13.70
2023-02-12T01:44:21.046Z,13.80
2023-02-12T01:46:57.694Z,13.80
2023-02-12T01:49:31.361Z,13.80
2023-02-12T01:52:03.821Z,13.70
2023-02-12T01:54:34.604Z,13.70
2023-02-12T01:57:04.050Z,13.60
2023-02-12T01:59:33.146Z,13.70
2023-02-12T02:02:01.197Z,13.90
2023-02-12T02:04:33.932Z,14.10
2023-02-12T02:07:07.310Z,14.00
2023-02-12T02:09:37.971Z,14.00
2023-02-12T02:12:24.661Z,13.80
2023-02-12T02:14:58.316Z,13.80
2023-02-12T02:17:41.695Z,13.80
2023-02-12T02:20:49.733Z,13.70
2023-02-12T02:23:41.191Z,13.30
2023-02-12T02:30:46.553Z,13.10
2023-02-12T02:33:31.510Z,13.20
2023-02-12T02:36:26.171Z,12.90
2023-02-12T02:39:00.563Z,12.80
2023-02-12T02:41:34.429Z,12.80
2023-02-12T02:44:14.129Z,12.80
2023-02-12T02:46:46.071Z,12.60
2023-02-12T02:49:20.621Z,12.50
2023-02-12T02:51:52.462Z,12.60
2023-02-12T02:54:34.241Z,12.70
2023-02-12T02:57:11.326Z,12.80
2023-02-12T02:59:45.450Z,13.00
2023-02-12T03:02:21.101Z,13.10
2023-02-12T03:05:05.765Z,13.10
2023-02-12T03:07:37.725Z,13.10
2023-02-12T03:10:11.598Z,13.00
2023-02-12T03:12:49.764Z,13.00
2023-02-12T03:15:23.792Z,13.00
2023-02-12T03:17:52.138Z,13.00
2023-02-12T03:20:25.698Z,12.90
2023-02-12T03:22:59.190Z,12.80
2023-02-12T03:25:34.165Z,12.70
2023-02-12T03:28:14.487Z,12.80
2023-02-12T03:30:46.723Z,12.80
2023-02-12T03:33:30.308Z,12.90
2023-02-12T03:36:21.915Z,13.00
2023-02-12T03:38:53.793Z,13.00
2023-02-12T03:41:26.639Z,13.00
2023-02-12T03:43:59.685Z,12.90
2023-02-12T03:46:41.875Z,12.80
2023-02-12T03:49:17.228Z,12.70
2023-02-12T03:51:49.556Z,12.50
2023-02-12T03:54:20.966Z,12.60
2023-02-12T03:56:56.282Z,12.50
2023-02-12T03:59:26.313Z,12.60
2023-02-12T04:02:00.370Z,12.70
2023-02-12T04:04:31.895Z,12.80
2023-02-12T04:07:01.603Z,13.00
2023-02-12T04:09:37.493Z,13.10
2023-02-12T04:12:43.281Z,13.20
2023-02-12T04:15:44.558Z,13.30
2023-02-12T04:18:21.109Z,13.30
2023-02-12T04:20:58.624Z,13.40
2023-02-12T04:23:41.709Z,13.30
2023-02-12T04:26:18.403Z,13.30
2023-02-12T04:28:55.449Z,13.30
2023-02-12T04:31:35.892Z,13.10
2023-02-12T04:34:11.120Z,12.90
2023-02-12T04:36:50.937Z,12.80
2023-02-12T04:39:24.170Z,12.70
2023-02-12T04:41:55.223Z,12.70
2023-02-12T04:44:25.983Z,12.90
2023-02-12T04:46:53.896Z,12.90
2023-02-12T04:49:27.544Z,12.80
2023-02-12T04:52:03.753Z,12.90
2023-02-12T04:54:32.980Z,13.00
2023-02-12T04:57:05.722Z,13.00
2023-02-12T04:59:33.635Z,13.00
2023-02-12T05:02:01.507Z,13.00
2023-02-12T05:04:38.453Z,13.00
2023-02-12T05:07:12.694Z,12.90
2023-02-12T05:09:48.000Z,13.00
2023-02-12T05:12:15.892Z,13.20
2023-02-12T05:14:43.733Z,13.30
2023-02-12T05:17:14.524Z,13.40
2023-02-12T05:19:42.393Z,13.50
2023-02-12T05:22:12.218Z,13.60
2023-02-12T05:24:42.926Z,13.60
2023-02-12T05:27:12.192Z,13.60
2023-02-12T05:29:49.049Z,13.60
2023-02-12T05:32:19.785Z,13.70
2023-02-12T05:34:53.015Z,13.70
2023-02-12T05:37:20.885Z,13.80
2023-02-12T05:39:50.779Z,13.90
2023-02-12T05:42:22.782Z,13.90
2023-02-12T05:44:56.781Z,13.90
2023-02-12T05:47:27.529Z,13.90
2023-02-12T05:49:55.376Z,14.00
2023-02-12T05:52:32.369Z,14.00
2023-02-12T05:55:00.236Z,14.00
2023-02-12T05:57:29.450Z,14.00
2023-02-12T05:59:57.335Z,14.00
2023-02-12T06:02:25.289Z,14.10
2023-02-12T06:04:59.354Z,13.80
2023-02-12T06:07:27.208Z,13.70
2023-02-12T06:10:03.767Z,13.60
2023-02-12T06:12:38.792Z,13.60
2023-02-12T06:15:09.829Z,13.60
2023-02-12T06:17:37.840Z,13.20
2023-02-12T06:20:15.631Z,13.10
2023-02-12T06:22:45.654Z,12.70
2023-02-12T06:25:15.966Z,12.50
2023-02-12T06:27:54.460Z,12.70
2023-02-12T06:30:25.280Z,12.90
2023-02-12T06:32:53.281Z,12.80
2023-02-12T06:35:21.198Z,12.70
2023-02-12T06:37:49.072Z,12.50
2023-02-12T06:40:20.230Z,12.30
2023-02-12T06:42:55.648Z,12.40
2023-02-12T06:45:23.545Z,12.20
2023-02-12T06:47:51.388Z,12.10
2023-02-12T06:50:19.465Z,12.00
2023-02-12T06:52:47.325Z,11.90
2023-02-12T06:55:15.217Z,12.00
2023-02-12T06:57:43.307Z,12.30
2023-02-12T07:00:15.928Z,12.50
2023-02-12T07:02:44.345Z,12.70
2023-02-12T07:05:12.780Z,12.90
2023-02-12T07:07:40.619Z,13.30
2023-02-12T07:10:14.394Z,13.00
2023-02-12T07:12:44.449Z,12.90
2023-02-12T07:15:12.666Z,12.90
2023-02-12T07:17:44.948Z,12.90
2023-02-12T07:20:14.470Z,12.70
2023-02-12T07:22:44.754Z,12.70
2023-02-12T07:25:18.807Z,12.80
2023-02-12T07:27:54.207Z,13.00
2023-02-12T07:30:22.199Z,13.00
2023-02-12T07:32:57.409Z,12.70
2023-02-12T07:35:28.067Z,12.40
2023-02-12T07:38:05.509Z,12.50
2023-02-12T07:40:42.540Z,12.10
2023-02-12T07:43:13.172Z,12.20
2023-02-12T07:45:44.101Z,12.30
2023-02-12T07:48:27.198Z,12.10
2023-02-12T07:51:03.671Z,12.00
2023-02-12T07:53:38.015Z,12.40
2023-02-12T07:56:11.168Z,12.60
2023-02-12T07:58:39.993Z,12.70
2023-02-12T08:01:23.872Z,12.40
2023-02-12T08:03:58.543Z,11.90
2023-02-12T08:06:28.769Z,11.30
2023-02-12T08:08:59.658Z,11.10
2023-02-12T08:11:28.833Z,11.30
2023-02-12T08:14:00.556Z,11.80
2023-02-12T08:16:31.577Z,12.40
2023-02-12T08:19:15.867Z,12.90
2023-02-12T08:21:51.617Z,13.30
2023-02-12T08:24:19.699Z,13.60
2023-02-12T08:26:51.195Z,13.90
2023-02-12T08:29:20.894Z,14.00
2023-02-12T08:31:50.912Z,14.20
2023-02-12T08:34:31.507Z,14.40
2023-02-12T08:37:02.984Z,14.60
2023-02-12T08:39:33.797Z,14.70
2023-02-12T08:42:01.960Z,14.80
2023-02-12T08:44:30.416Z,14.80
2023-02-12T08:47:07.228Z,14.80
2023-02-12T08:49:36.463Z,14.90
2023-02-12T08:52:07.512Z,14.70
2023-02-12T08:54:38.443Z,14.50
2023-02-12T08:57:09.993Z,14.10
2023-02-12T08:59:38.195Z,13.90
2023-02-12T09:02:21.192Z,13.90
2023-02-12T09:04:53.580Z,13.90
2023-02-12T09:07:21.448Z,13.70
2023-02-12T09:09:49.305Z,13.80
2023-02-12T09:12:17.203Z,13.80
2023-02-12T09:14:45.220Z,13.90
2023-02-12T09:17:13.092Z,14.00
2023-02-12T09:19:41.116Z,14.00
2023-02-12T09:22:13.379Z,13.90
2023-02-12T09:24:53.195Z,14.00
2023-02-12T09:27:21.170Z,13.90
2023-02-12T09:29:49.054Z,13.60
2023-02-12T09:32:16.954Z,13.30
2023-02-12T09:34:44.926Z,13.00
2023-02-12T09:37:14.125Z,12.90
2023-02-12T09:39:42.041Z,12.50
2023-02-12T09:42:31.490Z,12.30
2023-02-12T09:45:19.222Z,12.20
2023-02-12T09:48:04.164Z,12.30
2023-02-12T09:50:41.287Z,12.20
2023-02-12T09:53:25.862Z,12.20
2023-02-12T09:55:57.493Z,12.10
2023-02-12T09:58:36.575Z,12.00
2023-02-12T10:01:15.117Z,11.90
2023-02-12T10:03:44.201Z,12.00
2023-02-12T10:06:16.112Z,11.90
2023-02-12T10:12:12.489Z,11.80
2023-02-12T10:15:04.936Z,12.10
2023-02-12T10:18:04.017Z,12.10
2023-02-12T10:20:53.482Z,12.20
2023-02-12T10:24:03.637Z,12.20
2023-02-12T10:26:43.283Z,12.50
2023-02-12T10:29:18.672Z,12.60
2023-02-12T10:31:49.581Z,12.60
2023-02-12T10:34:22.950Z,12.80
2023-02-12T10:36:55.861Z,12.90
2023-02-12T10:39:26.848Z,13.20
2023-02-12T10:42:03.740Z,13.10
2023-02-12T10:44:40.297Z,13.00
2023-02-12T10:47:12.915Z,13.00
2023-02-12T10:49:40.834Z,13.20
2023-02-12T10:52:19.041Z,13.40
2023-02-12T10:54:50.646Z,13.40
2023-02-12T10:57:24.600Z,13.40
2023-02-12T10:59:57.119Z,13.40
2023-02-12T11:02:29.746Z,13.60
2023-02-12T11:05:25.086Z,13.60
2023-02-12T11:08:00.608Z,13.20
2023-02-12T11:10:33.589Z,13.10
2023-02-12T11:13:03.979Z,13.20
2023-02-12T11:15:49.490Z,13.20
2023-02-12T11:18:25.843Z,13.10
2023-02-12T11:20:59.560Z,12.90
2023-02-12T11:23:29.682Z,12.70
2023-02-12T11:26:06.202Z,12.50
2023-02-12T11:28:38.395Z,12.30
2023-02-12T11:31:26.306Z,12.20
2023-02-12T11:34:16.293Z,12.00
2023-02-12T11:36:49.596Z,11.90
2023-02-12T11:39:25.590Z,11.70
2023-02-12T11:41:57.924Z,11.70
2023-02-12T11:44:30.901Z,11.70
2023-02-12T11:47:03.813Z,11.70
2023-02-12T11:49:33.660Z,11.60
2023-02-12T11:52:03.580Z,11.50
2023-02-12T11:54:39.778Z,11.50
2023-02-12T11:57:46.761Z,11.70
2023-02-12T12:00:18.275Z,11.70
2023-02-12T12:02:55.071Z,11.70
2023-02-12T12:05:23.797Z,11.60
2023-02-12T12:07:57.188Z,11.60
2023-02-12T12:13:26.100Z,11.60
2023-02-12T12:16:42.250Z,11.80
2023-02-12T12:19:55.858Z,11.90
2023-02-12T12:22:43.683Z,12.10
2023-02-12T12:25:28.420Z,12.30
2023-02-12T12:28:15.207Z,12.10
2023-02-12T12:31:07.784Z,11.90
2023-02-12T12:33:41.704Z,11.80
2023-02-12T12:36:42.629Z,11.80
2023-02-12T12:39:22.005Z,11.80
2023-02-12T12:42:08.056Z,11.90
2023-02-12T12:44:51.670Z,11.90
2023-02-12T12:47:37.577Z,11.90
2023-02-12T12:50:40.434Z,11.90
2023-02-12T12:53:29.091Z,11.80
2023-02-12T12:56:26.529Z,11.90
2023-02-12T12:59:27.872Z,11.70
2023-02-12T13:02:49.530Z,11.90
2023-02-12T13:05:55.371Z,11.90
2023-02-12T13:08:49.669Z,12.00
2023-02-12T13:11:33.768Z,12.00
2023-02-12T13:14:31.940Z,11.90
2023-02-12T13:17:11.115Z,11.70
2023-02-12T13:19:50.386Z,11.70
2023-02-12T13:22:29.025Z,11.60
2023-02-12T13:25:02.767Z,11.60
2023-02-12T13:27:34.545Z,11.60
2023-02-12T13:30:18.260Z,11.50
2023-02-12T13:32:50.866Z,11.30
2023-02-12T13:35:30.269Z,11.20
2023-02-12T13:38:22.126Z,11.10
2023-02-12T13:41:02.903Z,11.30
2023-02-12T13:43:47.404Z,11.50
2023-02-12T13:46:25.152Z,11.60
2023-02-12T13:49:16.280Z,11.60
2023-02-12T13:51:47.368Z,11.50
2023-02-12T13:54:37.432Z,11.30
2023-02-12T13:57:13.343Z,11.40
2023-02-12T13:59:43.812Z,11.50
2023-02-12T14:02:44.596Z,11.50
2023-02-12T14:05:24.078Z,11.30
2023-02-12T14:07:55.237Z,11.20
2023-02-12T14:10:31.034Z,11.10
2023-02-12T14:13:11.359Z,10.90
2023-02-12T14:15:41.553Z,10.90
2023-02-12T14:18:29.760Z,10.90
2023-02-12T14:21:46.076Z,11.00
2023-02-12T14:24:47.582Z,11.20
2023-02-12T14:27:37.579Z,11.40
2023-02-12T14:30:31.313Z,11.50
2023-02-12T14:33:27.628Z,11.30
2023-02-12T14:36:40.664Z,11.30
2023-02-12T14:39:28.766Z,11.20
2023-02-12T14:42:45.870Z,11.20
2023-02-12T14:45:35.376Z,11.10
2023-02-12T14:48:41.518Z,11.00
2023-02-12T14:51:17.954Z,11.20
2023-02-12T14:53:56.980Z,11.20
2023-02-12T14:56:25.518Z,11.20
2023-02-12T14:58:56.937Z,11.10
2023-02-12T15:01:35.781Z,11.10
2023-02-12T15:04:36.532Z,11.10
2023-02-12T15:07:17.051Z,11.10
2023-02-12T15:09:51.480Z,11.10
2023-02-12T15:12:27.408Z,11.10
2023-02-12T15:15:13.902Z,11.20
2023-02-12T15:17:58.969Z,11.20
2023-02-12T15:20:42.689Z,11.20
2023-02-12T15:23:39.954Z,11.10
2023-02-12T15:26:13.226Z,11.10
2023-02-12T15:28:41.902Z,11.70
2023-02-12T15:31:11.431Z,12.20
2023-02-12T15:33:45.693Z,12.50
2023-02-12T15:36:19.067Z,12.40
2023-02-12T15:38:50.516Z,12.60
2023-02-12T15:41:37.560Z,12.70
2023-02-12T15:44:26.306Z,12.60
2023-02-12T15:46:55.993Z,12.70
2023-02-12T15:49:40.024Z,12.40
2023-02-12T15:52:20.649Z,12.20
2023-02-12T15:54:49.471Z,12.10
2023-02-12T15:57:23.100Z,12.00
2023-02-12T15:59:52.676Z,11.80
2023-02-12T16:02:25.276Z,11.70
2023-02-12T16:04:57.833Z,11.60
2023-02-12T16:07:41.886Z,11.50
2023-02-12T16:10:15.282Z,11.40
2023-02-12T16:12:43.524Z,11.30
2023-02-12T16:15:30.766Z,11.50
2023-02-12T16:18:06.729Z,11.70
2023-02-12T16:20:46.720Z,11.70
2023-02-12T16:23:23.653Z,11.60
2023-02-12T16:25:57.523Z,11.50
2023-02-12T16:28:29.054Z,11.40
2023-02-12T16:31:14.626Z,11.40
2023-02-12T16:33:53.210Z,11.40
2023-02-12T16:36:32.260Z,11.30
2023-02-12T16:39:02.268Z,11.40
2023-02-12T16:41:31.818Z,11.50
2023-02-12T16:44:22.132Z,11.40
2023-02-12T16:46:52.144Z,11.30
2023-02-12T16:49:22.620Z,11.30
2023-02-12T16:52:22.943Z,11.20
2023-02-12T16:54:50.878Z,11.20
2023-02-12T16:57:21.746Z,11.20
2023-02-12T16:59:55.711Z,11.30
2023-02-12T17:02:23.570Z,11.40
2023-02-12T17:04:56.733Z,11.50
2023-02-12T17:07:28.986Z,11.40
2023-02-12T17:10:04.222Z,11.50
2023-02-12T17:12:32.132Z,11.50
2023-02-12T17:15:08.859Z,11.50
2023-02-12T17:17:39.485Z,11.40
2023-02-12T17:20:10.192Z,11.40
2023-02-12T17:22:39.520Z,11.40
2023-02-12T17:25:07.586Z,11.50
2023-02-12T17:27:38.251Z,11.30
2023-02-12T17:30:07.272Z,11.30
2023-02-12T17:32:40.421Z,11.40
2023-02-12T17:35:12.920Z,11.80
2023-02-12T17:37:50.366Z,12.20
2023-02-12T17:40:24.505Z,12.10
2023-02-12T17:42:58.794Z,12.00
2023-02-12T17:45:26.686Z,11.80
2023-02-12T17:47:55.235Z,11.70
2023-02-12T17:50:23.308Z,11.70
2023-02-12T17:52:54.988Z,11.70
2023-02-12T17:55:22.877Z,11.60
2023-02-12T17:57:54.060Z,11.50
2023-02-12T18:00:25.800Z,11.50
2023-02-12T18:02:54.772Z,11.40
2023-02-12T18:05:28.697Z,11.30
2023-02-12T18:08:02.283Z,11.30
2023-02-12T18:10:47.707Z,11.20
2023-02-12T18:13:24.725Z,11.20
2023-02-12T18:16:02.776Z,11.30
2023-02-12T18:18:33.371Z,11.30
2023-02-12T18:21:07.897Z,11.10
2023-02-12T18:23:56.133Z,11.20
2023-02-12T18:26:24.452Z,11.30
2023-02-12T18:29:01.710Z,11.50
2023-02-12T18:31:33.592Z,11.60
2023-02-12T18:34:03.905Z,11.60
2023-02-12T18:36:40.726Z,11.50
2023-02-12T18:39:24.333Z,11.40
2023-02-12T18:41:57.954Z,11.30
2023-02-12T18:44:32.173Z,11.30
2023-02-12T18:47:03.001Z,11.30
2023-02-12T18:49:36.693Z,11.40
2023-02-12T18:52:04.696Z,11.40
2023-02-12T18:54:40.079Z,11.40
2023-02-12T18:57:13.557Z,11.40
2023-02-12T18:59:44.366Z,11.30
2023-02-12T19:02:13.844Z,11.30
2023-02-12T19:04:56.815Z,11.20
2023-02-12T19:07:30.617Z,11.20
2023-02-12T19:10:02.730Z,11.20
2023-02-12T19:12:36.578Z,11.30
2023-02-12T19:15:04.699Z,11.40
2023-02-12T19:17:34.045Z,11.60
2023-02-12T19:20:03.133Z,11.70
2023-02-12T19:22:40.010Z,11.70
2023-02-12T19:25:12.143Z,11.60
2023-02-12T19:27:39.959Z,11.60
2023-02-12T19:30:11.685Z,11.70
2023-02-12T19:32:42.732Z,11.80
2023-02-12T19:35:10.649Z,11.80
2023-02-12T19:37:38.613Z,11.70
2023-02-12T19:40:12.033Z,11.40
2023-02-12T19:42:47.393Z,11.30
2023-02-12T19:45:21.230Z,11.10
2023-02-12T19:48:10.576Z,10.90
2023-02-12T19:50:47.743Z,11.00
2023-02-12T19:53:15.733Z,11.00
2023-02-12T19:55:47.970Z,10.90
2023-02-12T19:58:18.282Z,10.90
2023-02-12T20:00:46.205Z,10.90
2023-02-12T20:03:14.463Z,10.90
2023-02-12T20:05:46.309Z,10.80
2023-02-12T20:08:17.254Z,10.90
2023-02-12T20:10:45.201Z,10.60
2023-02-12T20:13:14.457Z,10.60
2023-02-12T20:15:51.324Z,10.70
2023-02-12T20:18:25.878Z,10.80
2023-02-12T20:20:53.934Z,10.70
2023-02-12T20:23:24.251Z,10.70
2023-02-12T20:25:55.075Z,10.80
2023-02-12T20:28:24.247Z,10.80
2023-02-12T20:30:59.817Z,10.80
2023-02-12T20:33:30.957Z,10.80
2023-02-12T20:36:08.281Z,10.70
2023-02-12T20:38:39.200Z,10.80
2023-02-12T20:41:18.132Z,11.00
2023-02-12T20:43:53.082Z,10.90
2023-02-12T20:46:39.316Z,10.90
2023-02-12T20:49:10.251Z,10.80
2023-02-12T20:51:38.131Z,10.60
2023-02-12T20:54:09.316Z,10.50
2023-02-12T20:56:40.339Z,10.60
2023-02-12T20:59:15.171Z,11.10
2023-02-12T21:01:45.931Z,11.30
2023-02-12T21:04:16.560Z,11.50
2023-02-12T21:06:48.249Z,11.50
2023-02-12T21:09:19.781Z,11.40
2023-02-12T21:11:53.101Z,11.20
2023-02-12T21:14:25.047Z,10.90
2023-02-12T21:16:54.389Z,10.80
2023-02-12T21:19:26.453Z,10.70
2023-02-12T21:21:54.852Z,10.60
2023-02-12T21:24:24.664Z,10.80
2023-02-12T21:26:53.566Z,11.10
2023-02-12T21:29:27.340Z,11.20
2023-02-12T21:31:58.182Z,11.10
2023-02-12T21:34:29.354Z,11.30
2023-02-12T21:37:09.233Z,11.20
2023-02-12T21:39:37.154Z,11.20
2023-02-12T21:42:08.116Z,11.10
2023-02-12T21:44:40.492Z,11.00
2023-02-12T21:47:08.700Z,10.90
2023-02-12T21:49:39.384Z,10.80
2023-02-12T21:52:11.457Z,10.80
2023-02-12T21:54:42.085Z,10.70
2023-02-12T21:57:20.310Z,10.80
2023-02-12T21:59:55.300Z,10.90
2023-02-12T22:02:23.221Z,10.80
2023-02-12T22:04:51.173Z,10.80
2023-02-12T22:07:21.876Z,10.80
2023-02-12T22:09:49.758Z,10.70
2023-02-12T22:12:20.648Z,10.80
2023-02-12T22:15:03.663Z,10.80
2023-02-12T22:17:33.202Z,10.90
2023-02-12T22:20:02.012Z,11.20
2023-02-12T22:22:29.847Z,11.20
2023-02-12T22:25:00.001Z,11.10
2023-02-12T22:27:32.394Z,11.00
2023-02-12T22:30:04.411Z,10.90
2023-02-12T22:32:35.466Z,10.80
2023-02-12T22:35:03.441Z,10.90
2023-02-12T22:37:41.908Z,11.10
2023-02-12T22:40:11.162Z,11.30
2023-02-12T22:42:42.689Z,11.30
2023-02-12T22:45:11.923Z,11.20
2023-02-12T22:47:55.176Z,11.10
2023-02-12T22:50:23.044Z,11.10
2023-02-12T22:52:56.620Z,11.00
2023-02-12T22:55:24.477Z,11.00
2023-02-12T22:58:01.202Z,11.30
2023-02-12T23:00:30.734Z,11.30
2023-02-12T23:02:58.659Z,11.30
2023-02-12T23:05:26.602Z,11.30
2023-02-12T23:08:03.711Z,11.30
2023-02-12T23:10:31.633Z,11.20
2023-02-12T23:13:01.811Z,11.30
2023-02-12T23:15:32.002Z,11.50
2023-02-12T23:18:02.913Z,11.50
2023-02-12T23:20:30.763Z,11.40
2023-02-12T23:23:04.676Z,11.30
2023-02-12T23:25:32.557Z,11.20
2023-02-12T23:28:00.445Z,11.10
2023-02-12T23:30:32.637Z,11.10
2023-02-12T23:33:06.407Z,11.10
2023-02-12T23:35:36.557Z,11.10
2023-02-12T23:38:10.543Z,11.10
2023-02-12T23:40:38.952Z,11.10
2023-02-12T23:43:09.176Z,11.20
2023-02-12T23:45:46.767Z,11.20
2023-02-12T23:48:17.689Z,11.30
2023-02-12T23:50:51.311Z,11.30
2023-02-12T23:53:29.092Z,11.30
2023-02-12T23:55:56.951Z,11.20
2023-02-12T23:58:29.539Z,11.20
